createdAt,value
2023-04-25T00:01:49.292Z,8.60
2023-04-25T00:04:17.190Z,9.02
2023-04-25T00:06:45.025Z,9.18
2023-04-25T00:09:12.524Z,10.35
2023-04-25T00:11:41.449Z,9.60
2023-04-25T00:14:09.050Z,10.02
2023-04-25T00:16:37.127Z,9.20
2023-04-25T00:19:11.628Z,8.70
2023-04-25T00:21:41.630Z,10.13
2023-04-25T00:24:09.515Z,11.68
2023-04-25T00:26:37.189Z,12.63
2023-04-25T00:29:04.621Z,13.13
2023-04-25T00:31:32.143Z,12.63
2023-04-25T00:33:59.512Z,13.95
2023-04-25T00:36:27.092Z,15.25
2023-04-25T00:38:56.011Z,13.32
2023-04-25T00:41:24.898Z,15.52
2023-04-25T00:43:54.867Z,13.73
2023-04-25T00:46:22.571Z,13.93
2023-04-25T00:48:49.879Z,14.13
2023-04-25T00:51:24.505Z,13.23
2023-04-25T00:53:52.679Z,13.48
2023-04-25T00:56:22.421Z,14.43
2023-04-25T00:58:51.526Z,14.60
2023-04-25T01:01:19.291Z,14.55
2023-04-25T01:03:47.973Z,15.13
2023-04-25T01:06:15.720Z,14.98
2023-04-25T01:08:43.016Z,14.63
2023-04-25T01:11:10.565Z,15.10
2023-04-25T01:13:37.864Z,14.35
2023-04-25T01:16:05.993Z,13.10
2023-04-25T01:18:33.370Z,12.77
2023-04-25T01:21:11.119Z,14.43
2023-04-25T01:23:41.913Z,12.40
2023-04-25T01:26:13.530Z,11.82
2023-04-25T01:28:42.511Z,10.77
2023-04-25T01:31:11.546Z,10.57
2023-04-25T01:33:38.968Z,9.45
2023-04-25T01:36:07.222Z,7.90
2023-04-25T01:38:34.944Z,8.00
2023-04-25T01:41:02.800Z,7.22
2023-04-25T01:43:30.329Z,7.20
2023-04-25T01:45:58.592Z,6.25
2023-04-25T01:48:26.070Z,6.47
2023-04-25T01:50:53.659Z,6.88
2023-04-25T01:53:21.160Z,5.90
2023-04-25T01:55:48.675Z,6.45
2023-04-25T01:58:16.381Z,6.10
2023-04-25T02:00:43.926Z,5.47
2023-04-25T02:03:11.350Z,5.70
2023-04-25T02:05:41.485Z,5.38
2023-04-25T02:08:11.504Z,5.35
2023-04-25T02:10:39.407Z,4.28
2023-04-25T02:13:06.708Z,4.95
2023-04-25T02:15:34.381Z,4.53
2023-04-25T02:18:01.960Z,4.45
2023-04-25T02:20:31.691Z,4.32
2023-04-25T02:22:58.974Z,4.05
2023-04-25T02:25:26.858Z,4.00
2023-04-25T02:27:54.985Z,4.25
2023-04-25T02:30:22.623Z,3.70
2023-04-25T02:32:50.011Z,3.80
2023-04-25T02:35:17.808Z,4.35
2023-04-25T02:37:45.126Z,5.10
2023-04-25T02:40:13.001Z,4.38
2023-04-25T02:42:40.328Z,6.35
2023-04-25T02:45:08.822Z,5.15
2023-04-25T02:47:36.133Z,5.70
2023-04-25T02:50:04.562Z,6.68
2023-04-25T02:52:33.221Z,7.95
2023-04-25T02:55:01.210Z,7.55
2023-04-25T02:57:28.528Z,6.38
2023-04-25T02:59:56.601Z,6.68
2023-04-25T03:02:25.217Z,6.75
2023-04-25T03:04:55.277Z,6.03
2023-04-25T03:07:22.704Z,5.93
2023-04-25T03:09:50.282Z,7.35
2023-04-25T03:12:17.960Z,6.65
2023-04-25T03:14:47.718Z,5.68
2023-04-25T03:17:15.296Z,6.65
2023-04-25T03:19:44.335Z,4.45
2023-04-25T03:22:14.474Z,3.85
2023-04-25T03:24:42.308Z,3.50
2023-04-25T03:27:10.774Z,3.90
2023-04-25T03:29:38.391Z,3.40
2023-04-25T03:32:05.908Z,3.38
2023-04-25T03:34:33.475Z,3.40
2023-04-25T03:37:01.106Z,3.53
2023-04-25T03:39:28.696Z,4.00
2023-04-25T03:41:56.258Z,4.18
2023-04-25T03:44:25.502Z,4.15
2023-04-25T03:46:52.780Z,3.78
2023-04-25T03:49:20.427Z,4.03
2023-04-25T03:51:49.287Z,4.72
2023-04-25T03:54:16.878Z,4.47
2023-04-25T03:56:44.150Z,4.20
2023-04-25T03:59:11.805Z,3.80
2023-04-25T04:01:39.036Z,4.20
2023-04-25T04:04:06.798Z,3.80
2023-04-25T04:06:34.283Z,3.55
2023-04-25T04:09:01.772Z,3.78
2023-04-25T04:11:28.999Z,3.50
2023-04-25T04:13:56.510Z,4.00
2023-04-25T04:16:23.941Z,3.95
2023-04-25T04:18:51.547Z,3.58
2023-04-25T04:21:18.888Z,5.18
2023-04-25T04:23:47.690Z,3.85
2023-04-25T04:26:17.396Z,3.60
2023-04-25T04:28:47.961Z,3.65
2023-04-25T04:31:18.048Z,3.38
2023-04-25T04:33:45.873Z,3.17
2023-04-25T04:36:13.347Z,3.20
2023-04-25T04:38:43.419Z,3.33
2023-04-25T04:41:10.857Z,4.05
2023-04-25T04:43:38.534Z,4.10
2023-04-25T04:46:06.068Z,3.45
2023-04-25T04:48:35.410Z,3.92
2023-04-25T04:51:02.672Z,3.05
2023-04-25T04:53:30.222Z,2.75
2023-04-25T04:55:57.453Z,3.50
2023-04-25T04:58:24.965Z,3.20
2023-04-25T05:00:52.251Z,3.15
2023-04-25T05:03:20.201Z,3.63
2023-04-25T05:05:48.303Z,3.78
2023-04-25T05:08:15.968Z,3.78
2023-04-25T05:10:43.346Z,4.40
2023-04-25T05:13:11.038Z,3.58
2023-04-25T05:15:38.311Z,3.55
2023-04-25T05:18:06.221Z,4.30
2023-04-25T05:20:33.573Z,3.50
2023-04-25T05:23:01.240Z,5.70
2023-04-25T05:25:28.544Z,4.47
2023-04-25T05:27:56.134Z,3.65
2023-04-25T05:30:23.492Z,3.50
2023-04-25T05:32:51.575Z,3.33
2023-04-25T05:35:19.023Z,3.45
2023-04-25T05:37:46.635Z,3.33
2023-04-25T05:40:14.262Z,3.55
2023-04-25T05:42:41.803Z,3.30
2023-04-25T05:45:09.460Z,2.83
2023-04-25T05:47:37.055Z,3.00
2023-04-25T05:50:04.852Z,3.30
2023-04-25T05:52:32.528Z,2.92
2023-04-25T05:54:59.757Z,14.38
2023-04-25T05:57:28.801Z,7.72
2023-04-25T05:59:56.114Z,7.28
2023-04-25T06:02:23.932Z,5.93
2023-04-25T06:04:52.464Z,5.47
2023-04-25T06:07:23.275Z,4.35
2023-04-25T06:09:50.773Z,5.13
2023-04-25T06:12:18.372Z,6.40
2023-04-25T06:14:45.671Z,9.80
2023-04-25T06:17:13.256Z,7.35
2023-04-25T06:19:40.611Z,8.77
2023-04-25T06:22:09.400Z,4.68
2023-04-25T06:24:36.940Z,4.25
2023-04-25T06:27:04.473Z,4.88
2023-04-25T06:29:31.839Z,4.35
2023-04-25T06:31:59.341Z,4.05
2023-04-25T06:34:26.969Z,4.90
2023-04-25T06:36:54.524Z,4.68
2023-04-25T06:39:24.283Z,3.45
2023-04-25T06:41:52.314Z,4.53
2023-04-25T06:44:19.569Z,5.25
2023-04-25T06:46:47.147Z,4.53
2023-04-25T06:49:14.364Z,3.83
2023-04-25T06:51:42.457Z,4.00
2023-04-25T06:54:09.711Z,3.70
2023-04-25T06:56:37.314Z,4.35
2023-04-25T06:59:04.588Z,6.82
2023-04-25T07:01:32.207Z,11.02
2023-04-25T07:03:59.700Z,4.57
2023-04-25T07:06:28.860Z,3.50
2023-04-25T07:08:56.880Z,3.60
2023-04-25T07:11:24.482Z,3.40
2023-04-25T07:13:51.714Z,4.07
2023-04-25T07:16:19.316Z,3.88
2023-04-25T07:18:46.553Z,4.25
2023-04-25T07:21:14.112Z,3.75
2023-04-25T07:23:41.906Z,4.00
2023-04-25T07:26:09.499Z,3.80
2023-04-25T07:28:36.836Z,4.47
2023-04-25T07:31:04.596Z,4.32
2023-04-25T07:33:32.152Z,3.50
2023-04-25T07:35:59.754Z,4.35
2023-04-25T07:38:27.559Z,3.65
2023-04-25T07:40:55.204Z,3.95
2023-04-25T07:43:22.637Z,4.20
2023-04-25T07:45:50.290Z,6.32
2023-04-25T07:48:20.897Z,10.00
2023-04-25T07:50:48.505Z,10.13
2023-04-25T07:53:16.952Z,4.70
2023-04-25T07:55:44.712Z,4.15
2023-04-25T07:58:13.369Z,4.18
2023-04-25T08:00:42.822Z,3.88
2023-04-25T08:03:11.146Z,4.50
2023-04-25T08:05:39.119Z,4.57
2023-04-25T08:08:07.736Z,3.90
2023-04-25T08:10:35.667Z,3.58
2023-04-25T08:13:03.597Z,3.78
2023-04-25T08:15:31.424Z,3.90
2023-04-25T08:17:59.166Z,4.38
2023-04-25T08:20:27.405Z,3.60
2023-04-25T08:22:54.927Z,4.13
2023-04-25T08:25:22.538Z,3.90
2023-04-25T08:27:50.001Z,4.10
2023-04-25T08:30:17.660Z,3.55
2023-04-25T08:32:45.232Z,14.95
2023-04-25T08:35:12.975Z,7.68
2023-04-25T08:37:40.337Z,6.30
2023-04-25T08:40:13.305Z,3.85
2023-04-25T08:42:43.542Z,4.15
2023-04-25T08:45:11.916Z,4.15
2023-04-25T08:47:41.062Z,4.07
2023-04-25T08:50:09.212Z,3.60
2023-04-25T08:52:49.228Z,3.97
2023-04-25T08:55:17.897Z,2.70
2023-04-25T08:57:46.074Z,3.13
2023-04-25T09:00:14.491Z,3.55
2023-04-25T09:02:44.297Z,3.28
2023-04-25T09:05:15.192Z,3.00
2023-04-25T09:07:42.680Z,3.40
2023-04-25T09:10:10.853Z,3.40
2023-04-25T09:12:38.713Z,3.13
2023-04-25T09:15:20.472Z,3.10
2023-04-25T09:17:58.090Z,3.95
2023-04-25T09:20:26.276Z,3.55
2023-04-25T09:23:06.403Z,5.57
2023-04-25T09:25:40.363Z,15.52
2023-04-25T09:28:08.226Z,6.60
2023-04-25T09:30:37.891Z,5.05
2023-04-25T09:33:12.366Z,4.15
2023-04-25T09:35:43.455Z,5.05
2023-04-25T09:38:13.906Z,4.10
2023-04-25T09:40:47.335Z,3.53
2023-04-25T09:43:26.777Z,4.10
2023-04-25T09:45:59.169Z,5.53
2023-04-25T09:48:29.009Z,4.85
2023-04-25T09:51:15.615Z,4.22
2023-04-25T09:53:53.197Z,4.80
2023-04-25T09:56:23.511Z,4.15
2023-04-25T09:58:55.754Z,3.95
2023-04-25T10:01:24.769Z,3.85
2023-04-25T10:03:59.131Z,3.70
2023-04-25T10:06:29.387Z,3.95
2023-04-25T10:08:57.909Z,3.95
2023-04-25T10:11:28.095Z,7.45
2023-04-25T10:13:57.081Z,12.88
2023-04-25T10:16:26.183Z,4.40
2023-04-25T10:18:53.663Z,4.13
2023-04-25T10:21:22.832Z,6.32
2023-04-25T10:23:51.472Z,3.17
2023-04-25T10:26:20.035Z,3.53
2023-04-25T10:29:03.169Z,2.70
2023-04-25T10:31:32.315Z,3.03
2023-04-25T10:34:02.557Z,2.50
2023-04-25T10:36:33.796Z,2.47
2023-04-25T10:39:10.341Z,3.13
2023-04-25T10:41:59.082Z,2.63
2023-04-25T10:44:31.064Z,3.03
2023-04-25T10:47:01.641Z,3.10
2023-04-25T10:49:38.590Z,3.05
2023-04-25T10:52:16.615Z,3.03
2023-04-25T10:54:55.349Z,2.53
2023-04-25T10:57:45.112Z,2.88
2023-04-25T11:00:19.731Z,2.97
2023-04-25T11:02:58.784Z,2.50
2023-04-25T11:05:43.760Z,3.45
2023-04-25T11:08:41.995Z,5.80
2023-04-25T11:11:09.940Z,3.10
2023-04-25T11:13:37.660Z,2.22
2023-04-25T11:16:13.140Z,2.40
2023-04-25T11:18:46.025Z,2.22
2023-04-25T11:21:14.512Z,2.67
2023-04-25T11:23:42.165Z,2.15
2023-04-25T11:26:09.492Z,2.70
2023-04-25T11:28:37.155Z,2.80
2023-04-25T11:31:05.650Z,2.55
2023-04-25T11:33:33.283Z,5.90
2023-04-25T11:36:00.907Z,12.63
2023-04-25T11:38:29.504Z,7.32
2023-04-25T11:40:57.905Z,4.28
2023-04-25T11:43:26.993Z,2.65
2023-04-25T11:45:54.292Z,3.20
2023-04-25T11:48:24.114Z,2.47
2023-04-25T11:50:56.223Z,2.90
2023-04-25T11:53:25.848Z,2.80
2023-04-25T11:55:53.369Z,2.83
2023-04-25T11:58:21.645Z,3.22
2023-04-25T12:00:51.177Z,3.13
2023-04-25T12:03:20.383Z,6.82
2023-04-25T12:05:47.994Z,4.40
2023-04-25T12:08:17.443Z,6.65
2023-04-25T12:10:47.292Z,3.80
2023-04-25T12:13:29.290Z,3.08
2023-04-25T12:15:57.634Z,3.63
2023-04-25T12:18:28.938Z,6.38
2023-04-25T12:20:57.190Z,6.20
2023-04-25T12:23:29.356Z,4.05
2023-04-25T12:25:57.251Z,2.90
2023-04-25T12:28:28.702Z,2.85
2023-04-25T12:31:07.356Z,3.83
2023-04-25T12:33:40.471Z,6.47
2023-04-25T12:36:13.303Z,7.13
2023-04-25T12:38:43.498Z,3.95
2023-04-25T12:41:11.188Z,7.13
2023-04-25T12:43:38.734Z,6.97
2023-04-25T12:46:06.180Z,5.38
2023-04-25T12:48:33.962Z,3.22
2023-04-25T12:51:01.382Z,3.40
2023-04-25T12:53:28.956Z,3.30
2023-04-25T12:55:57.083Z,3.10
2023-04-25T12:58:25.994Z,3.45
2023-04-25T13:00:53.316Z,3.60
2023-04-25T13:03:21.107Z,2.55
2023-04-25T13:05:48.543Z,2.97
2023-04-25T13:08:16.441Z,3.72
2023-04-25T13:10:43.820Z,3.22
2023-04-25T13:13:11.680Z,3.00
2023-04-25T13:15:38.954Z,3.20
2023-04-25T13:18:09.502Z,2.90
2023-04-25T13:20:36.930Z,2.72
2023-04-25T13:23:04.454Z,2.60
2023-04-25T13:25:31.725Z,2.70
2023-04-25T13:27:59.395Z,2.78
2023-04-25T13:30:26.848Z,3.75
2023-04-25T13:32:58.068Z,3.40
2023-04-25T13:35:25.738Z,3.28
2023-04-25T13:37:53.196Z,3.10
2023-04-25T13:40:20.542Z,3.40
2023-04-25T13:42:48.105Z,6.55
2023-04-25T13:45:16.080Z,8.25
2023-04-25T13:47:43.822Z,8.68
2023-04-25T13:50:11.649Z,3.90
2023-04-25T13:52:39.180Z,4.15
2023-04-25T13:55:08.434Z,4.25
2023-04-25T13:57:39.376Z,6.35
2023-04-25T14:00:15.421Z,4.60
2023-04-25T14:02:43.114Z,7.82
2023-04-25T14:05:10.746Z,7.53
2023-04-25T14:07:38.485Z,7.93
2023-04-25T14:10:06.976Z,6.88
2023-04-25T14:12:34.787Z,4.60
2023-04-25T14:15:02.047Z,4.45
2023-04-25T14:17:29.670Z,6.90
2023-04-25T14:19:57.226Z,5.55
2023-04-25T14:22:24.848Z,4.90
2023-04-25T14:24:52.232Z,5.18
2023-04-25T14:27:19.987Z,5.78
2023-04-25T14:29:47.397Z,5.10
2023-04-25T14:32:14.912Z,3.33
2023-04-25T14:34:42.186Z,2.92
2023-04-25T14:37:09.952Z,4.22
2023-04-25T14:39:37.891Z,3.38
2023-04-25T14:42:05.595Z,3.10
2023-04-25T14:44:32.912Z,3.10
2023-04-25T14:47:00.747Z,2.90
2023-04-25T14:49:29.300Z,2.80
2023-04-25T14:51:56.834Z,2.70
2023-04-25T14:54:24.089Z,3.00
2023-04-25T14:56:52.491Z,3.00
2023-04-25T14:59:20.866Z,2.58
2023-04-25T15:01:48.544Z,3.28
2023-04-25T15:04:16.482Z,5.80
2023-04-25T15:06:45.209Z,5.50
2023-04-25T15:09:14.119Z,4.40
2023-04-25T15:11:41.809Z,3.40
2023-04-25T15:14:09.291Z,3.47
2023-04-25T15:16:36.890Z,3.97
2023-04-25T15:19:04.975Z,5.88
2023-04-25T15:21:33.088Z,9.73
2023-04-25T15:24:01.031Z,8.13
2023-04-25T15:26:29.537Z,4.18
2023-04-25T15:28:56.985Z,5.43
2023-04-25T15:31:24.548Z,4.03
2023-04-25T15:33:52.102Z,5.07
2023-04-25T15:36:21.663Z,4.60
2023-04-25T15:38:49.000Z,6.00
2023-04-25T15:41:16.671Z,4.28
2023-04-25T15:43:43.916Z,3.55
2023-04-25T15:46:11.714Z,4.32
2023-04-25T15:48:39.019Z,4.35
2023-04-25T15:51:06.771Z,4.22
2023-04-25T15:53:34.047Z,4.35
2023-04-25T15:56:02.010Z,3.90
2023-04-25T15:58:29.210Z,3.30
2023-04-25T16:00:57.607Z,3.00
2023-04-25T16:03:25.085Z,3.40
2023-04-25T16:05:53.649Z,2.92
2023-04-25T16:08:21.459Z,3.47
2023-04-25T16:10:49.595Z,4.28
2023-04-25T16:13:16.892Z,5.20
2023-04-25T16:15:44.442Z,5.30
2023-04-25T16:18:12.010Z,7.68
2023-04-25T16:20:39.852Z,7.43
2023-04-25T16:23:07.099Z,6.40
2023-04-25T16:25:36.345Z,4.55
2023-04-25T16:28:03.650Z,4.30
2023-04-25T16:30:31.612Z,5.00
2023-04-25T16:32:59.100Z,4.15
2023-04-25T16:35:30.501Z,4.30
2023-04-25T16:37:58.336Z,3.88
2023-04-25T16:40:26.362Z,6.47
2023-04-25T16:42:53.724Z,6.20
2023-04-25T16:45:21.829Z,7.82
2023-04-25T16:47:49.167Z,4.88
2023-04-25T16:50:18.922Z,3.55
2023-04-25T16:52:46.352Z,7.35
2023-04-25T16:55:13.890Z,9.02
2023-04-25T16:57:41.366Z,3.90
2023-04-25T17:00:10.064Z,4.50
2023-04-25T17:02:39.095Z,3.40
2023-04-25T17:05:07.363Z,2.80
2023-04-25T17:07:34.708Z,2.22
2023-04-25T17:10:02.656Z,2.35
2023-04-25T17:12:30.786Z,2.80
2023-04-25T17:15:00.571Z,2.20
2023-04-25T17:17:28.410Z,2.67
2023-04-25T17:19:56.095Z,2.60
2023-04-25T17:22:24.450Z,1.95
2023-04-25T17:24:52.043Z,2.63
2023-04-25T17:27:19.364Z,10.05
2023-04-25T17:29:47.052Z,6.82
2023-04-25T17:32:17.277Z,4.60
2023-04-25T17:34:46.350Z,2.80
2023-04-25T17:37:16.409Z,3.35
2023-04-25T17:39:46.039Z,2.83
2023-04-25T17:42:14.678Z,3.13
2023-04-25T17:44:43.362Z,3.10
2023-04-25T17:47:11.709Z,3.05
2023-04-25T17:49:40.215Z,2.38
2023-04-25T17:52:07.595Z,2.88
2023-04-25T17:54:35.417Z,3.15
2023-04-25T17:57:02.702Z,3.55
2023-04-25T17:59:31.239Z,2.92
2023-04-25T18:02:00.079Z,3.00
2023-04-25T18:04:28.014Z,2.80
2023-04-25T18:06:55.778Z,2.45
2023-04-25T18:09:23.881Z,2.40
2023-04-25T18:11:53.641Z,4.18
2023-04-25T18:14:22.915Z,3.38
2023-04-25T18:16:54.913Z,18.27
2023-04-25T18:19:23.450Z,5.10
2023-04-25T18:21:54.528Z,10.25
2023-04-25T18:24:27.216Z,5.40
2023-04-25T18:26:57.030Z,3.58
2023-04-25T18:29:32.852Z,3.05
2023-04-25T18:32:00.985Z,3.55
2023-04-25T18:34:28.690Z,3.95
2023-04-25T18:36:56.909Z,3.90
2023-04-25T18:39:25.987Z,4.55
2023-04-25T18:42:01.592Z,3.95
2023-04-25T18:44:33.887Z,4.85
2023-04-25T18:47:01.327Z,4.55
2023-04-25T18:49:28.986Z,4.95
2023-04-25T18:51:57.533Z,11.35
2023-04-25T18:54:25.465Z,18.95
2023-04-25T18:56:55.703Z,8.60
2023-04-25T18:59:24.149Z,11.43
2023-04-25T19:01:53.608Z,15.90
2023-04-25T19:04:21.888Z,10.32
2023-04-25T19:06:51.482Z,12.60
2023-04-25T19:09:19.503Z,14.43
2023-04-25T19:11:47.244Z,11.13
2023-04-25T19:14:15.302Z,11.18
2023-04-25T19:16:42.801Z,9.38
2023-04-25T19:19:10.918Z,10.10
2023-04-25T19:21:38.566Z,8.77
2023-04-25T19:24:07.244Z,9.10
2023-04-25T19:26:35.535Z,9.40
2023-04-25T19:29:08.927Z,20.63
2023-04-25T19:31:38.040Z,24.92
2023-04-25T19:34:07.148Z,16.48
2023-04-25T19:36:37.118Z,9.88
2023-04-25T19:39:07.359Z,7.68
2023-04-25T19:41:37.613Z,7.03
2023-04-25T19:44:08.619Z,6.95
2023-04-25T19:46:37.644Z,7.25
2023-04-25T19:49:07.875Z,7.18
2023-04-25T19:51:36.672Z,8.23
2023-04-25T19:54:04.817Z,7.28
2023-04-25T19:56:32.639Z,8.43
2023-04-25T19:59:00.429Z,7.82
2023-04-25T20:01:28.081Z,6.20
2023-04-25T20:03:56.608Z,7.78
2023-04-25T20:06:24.199Z,7.60
2023-04-25T20:08:56.047Z,6.93
2023-04-25T20:11:23.489Z,6.18
2023-04-25T20:13:51.499Z,5.70
2023-04-25T20:16:19.953Z,4.70
2023-04-25T20:18:49.100Z,5.18
2023-04-25T20:21:17.681Z,13.13
2023-04-25T20:23:46.353Z,10.18
2023-04-25T20:26:14.277Z,6.78
2023-04-25T20:28:42.155Z,5.72
2023-04-25T20:31:11.590Z,5.43
2023-04-25T20:33:39.359Z,5.75
2023-04-25T20:36:06.901Z,6.35
2023-04-25T20:38:34.563Z,5.22
2023-04-25T20:41:02.246Z,4.68
2023-04-25T20:43:31.388Z,4.13
2023-04-25T20:46:00.468Z,3.20
2023-04-25T20:48:28.143Z,3.30
2023-04-25T20:50:55.528Z,3.40
2023-04-25T20:53:23.286Z,3.00
2023-04-25T20:55:50.602Z,3.60
2023-04-25T20:58:18.488Z,4.20
2023-04-25T21:00:47.585Z,3.70
2023-04-25T21:03:16.228Z,3.92
2023-04-25T21:05:43.761Z,3.17
2023-04-25T21:08:11.320Z,8.23
2023-04-25T21:10:38.705Z,9.23
2023-04-25T21:13:06.273Z,5.35
2023-04-25T21:15:33.805Z,4.32
2023-04-25T21:18:02.131Z,4.00
2023-04-25T21:20:29.553Z,3.90
2023-04-25T21:22:57.124Z,3.90
2023-04-25T21:25:30.245Z,4.15
2023-04-25T21:27:59.258Z,4.60
2023-04-25T21:30:27.434Z,4.63
2023-04-25T21:32:55.249Z,5.65
2023-04-25T21:35:23.351Z,5.03
2023-04-25T21:37:51.548Z,4.25
2023-04-25T21:40:19.665Z,4.05
2023-04-25T21:42:51.386Z,4.43
2023-04-25T21:45:20.111Z,3.63
2023-04-25T21:47:48.659Z,4.63
2023-04-25T21:50:17.087Z,4.28
2023-04-25T21:52:44.670Z,4.40
2023-04-25T21:55:11.996Z,4.47
2023-04-25T21:57:39.650Z,4.90
2023-04-25T22:00:21.354Z,4.20
2023-04-25T22:02:49.131Z,4.53
2023-04-25T22:05:17.506Z,4.57
2023-04-25T22:07:45.110Z,4.47
2023-04-25T22:10:12.498Z,4.22
2023-04-25T22:12:41.521Z,3.55
2023-04-25T22:15:09.630Z,3.40
2023-04-25T22:17:37.217Z,4.30
2023-04-25T22:20:14.399Z,3.97
2023-04-25T22:22:42.913Z,4.55
2023-04-25T22:25:12.592Z,4.68
2023-04-25T22:27:43.897Z,4.40
2023-04-25T22:30:15.489Z,4.40
2023-04-25T22:32:43.674Z,4.32
2023-04-25T22:35:11.766Z,4.10
2023-04-25T22:37:41.135Z,4.63
2023-04-25T22:40:11.747Z,4.50
2023-04-25T22:42:40.957Z,3.78
2023-04-25T22:45:09.902Z,4.07
2023-04-25T22:47:39.196Z,4.38
2023-04-25T22:50:13.153Z,3.33
2023-04-25T22:52:42.701Z,3.60
2023-04-25T22:55:12.442Z,3.58
2023-04-25T22:57:41.700Z,3.30
2023-04-25T23:00:20.089Z,3.85
2023-04-25T23:02:49.923Z,3.75
2023-04-25T23:05:17.516Z,3.85
2023-04-25T23:07:45.404Z,3.65
2023-04-25T23:10:15.760Z,3.60
2023-04-25T23:12:43.744Z,3.33
2023-04-25T23:15:12.531Z,4.07
2023-04-25T23:17:40.956Z,3.88
2023-04-25T23:20:11.071Z,3.60
2023-04-25T23:22:39.013Z,3.95
2023-04-25T23:25:07.900Z,3.45
2023-04-25T23:27:35.825Z,3.05
2023-04-25T23:30:03.422Z,3.92
2023-04-25T23:32:32.015Z,3.60
2023-04-25T23:34:59.359Z,3.58
2023-04-25T23:37:26.919Z,3.00
2023-04-25T23:39:54.260Z,3.47
2023-04-25T23:42:21.847Z,3.50
2023-04-25T23:44:49.239Z,3.13
2023-04-25T23:47:19.047Z,3.45
2023-04-25T23:49:46.659Z,3.60
2023-04-25T23:52:14.236Z,4.07
2023-04-25T23:54:41.523Z,3.95
2023-04-25T23:57:09.136Z,3.88
2023-04-25T23:59:36.392Z,4.18
